Time;durP1;ratioP1;P1;durP2;ratioP2;P2;SDS_P1;SDS_P2;PMS_P1;PMS_P2;Temp;Humidity;BMP_temperature;BMP_pressure;BME280_temperature;BME280_humidity;BME280_pressure;Samples;Min_cycle;Max_cycle;Signal;HPM_P1;HPM_P2
2021/08/18 00:01:51;;;;;;;;;;;;;;;18.01;88.92;99244.38;5034181;28;826;-60
2021/08/18 00:04:18;;;;;;;;;;;;;;;17.93;89.10;99249.50;5034197;28;1886;-59
2021/08/18 00:06:45;;;;;;;;;;;;;;;17.88;89.39;99250.13;5034153;28;885;-60
2021/08/18 00:09:12;;;;;;;;;;;;;;;17.86;89.26;99257.41;5034081;28;855;-60
2021/08/18 00:11:39;;;;;;;;;;;;;;;17.84;89.54;99257.13;5034072;28;803;-59
2021/08/18 00:14:06;;;;;;;;;;;;;;;17.86;89.67;99257.41;5034003;28;922;-60
2021/08/18 00:16:33;;;;;;;;;;;;;;;17.90;89.96;99258.03;5033667;28;1302;-60
2021/08/18 00:18:58;;;;;;;;;;;;;;;17.92;89.89;99255.53;5033946;28;874;-60
2021/08/18 00:21:25;;;;;;;;;;;;;;;17.91;90.01;99257.56;5033857;28;823;-60
2021/08/18 00:23:52;;;;;;;;;;;;;;;17.92;90.01;99255.53;5033719;28;1977;-60
2021/08/18 00:26:25;;;;;;;;;;;;;;;17.93;90.11;99266.25;5034039;28;799;-60
2021/08/18 00:28:53;;;;;;;;;;;;;;;17.91;89.90;99259.59;5033669;28;846;-60
2021/08/18 00:31:20;;;;;;;;;;;;;;;17.84;89.74;99265.50;5033607;28;854;-60
2021/08/18 00:33:47;;;;;;;;;;;;;;;17.78;89.72;99258.94;5033248;28;795;-60
2021/08/18 00:36:15;;;;;;;;;;;;;;;17.73;89.63;99258.31;5033613;28;819;-59
2021/08/18 00:38:41;;;;;;;;;;;;;;;17.69;89.90;99252.09;5033794;28;815;-59
2021/08/18 00:41:09;;;;;;;;;;;;;;;17.66;89.76;99260.63;5033540;28;839;-60
2021/08/18 00:43:36;;;;;;;;;;;;;;;17.68;90.01;99263.75;4999586;28;1886;-60
2021/08/18 00:46:03;;;;;;;;;;;;;;;17.68;90.02;99261.72;5033501;28;835;-60
2021/08/18 00:48:30;;;;;;;;;;;;;;;17.66;90.03;99264.19;5015882;28;882;-60
2021/08/18 00:50:57;;;;;;;;;;;;;;;17.66;90.13;99255.03;5033290;28;820;-60
2021/08/18 00:53:24;;;;;;;;;;;;;;;17.66;89.82;99255.81;5034236;28;771;-60
2021/08/18 00:55:50;;;;;;;;;;;;;;;17.64;89.98;99266.69;5033127;28;910;-60
2021/08/18 00:58:17;;;;;;;;;;;;;;;17.62;89.83;99260.78;5033472;28;834;-60
2021/08/18 01:00:43;;;;;;;;;;;;;;;17.63;90.09;99259.56;5032994;28;856;-60
2021/08/18 01:03:09;;;;;;;;;;;;;;;17.62;89.98;99263.56;5032983;28;1983;-59
2021/08/18 01:05:36;;;;;;;;;;;;;;;17.59;89.86;99255.34;5033038;28;870;-59
2021/08/18 01:08:02;;;;;;;;;;;;;;;17.55;89.77;99249.91;5032994;28;826;-60
2021/08/18 01:10:34;;;;;;;;;;;;;;;17.50;89.79;99244.94;5032866;28;885;-60
2021/08/18 01:13:02;;;;;;;;;;;;;;;17.46;89.88;99259.06;5033350;28;949;-60
2021/08/18 01:15:29;;;;;;;;;;;;;;;17.42;89.74;99252.06;5033153;28;1210;-60
2021/08/18 01:17:57;;;;;;;;;;;;;;;17.37;89.97;99253.47;5032962;28;859;-60
2021/08/18 01:20:32;;;;;;;;;;;;;;;17.33;89.85;99255.63;5032698;28;929;-60
2021/08/18 01:23:02;;;;;;;;;;;;;;;17.29;89.67;99252.19;5032732;28;1910;-59
2021/08/18 01:25:29;;;;;;;;;;;;;;;17.26;89.87;99247.53;5032453;28;827;-60
2021/08/18 01:27:57;;;;;;;;;;;;;;;17.22;89.89;99258.84;5032547;28;1182;-60
2021/08/18 01:30:25;;;;;;;;;;;;;;;17.18;89.84;99241.47;5032786;28;835;-60
2021/08/18 01:32:53;;;;;;;;;;;;;;;17.16;89.86;99235.56;5032475;28;855;-59
2021/08/18 01:35:26;;;;;;;;;;;;;;;17.13;89.78;99223.31;5032434;28;866;-59
2021/08/18 01:37:53;;;;;;;;;;;;;;;16.96;89.98;99201.69;5032485;28;925;-60
2021/08/18 01:40:21;;;;;;;;;;;;;;;17.07;89.63;99233.53;5032649;28;881;-59
2021/08/18 01:42:47;;;;;;;;;;;;;;;17.01;89.55;99215.81;5032150;28;1886;-59
2021/08/18 01:45:23;;;;;;;;;;;;;;;16.98;89.81;99222.31;5032191;28;894;-60
2021/08/18 01:47:50;;;;;;;;;;;;;;;16.92;89.96;99227.75;5031993;28;837;-60
2021/08/18 01:50:18;;;;;;;;;;;;;;;16.88;89.87;99226.34;5032241;28;814;-59
2021/08/18 01:52:44;;;;;;;;;;;;;;;16.89;90.16;99231.44;5014487;28;823;-60
2021/08/18 01:55:11;;;;;;;;;;;;;;;16.94;90.18;99227.25;5032024;28;964;-59
2021/08/18 01:57:42;;;;;;;;;;;;;;;16.88;90.13;99224.31;5032062;28;1004;-59
2021/08/18 02:00:09;;;;;;;;;;;;;;;16.96;90.52;99230.38;5032036;28;850;-59
2021/08/18 02:02:36;;;;;;;;;;;;;;;16.98;90.42;99232.72;5031992;28;1894;-60
2021/08/18 02:05:03;;;;;;;;;;;;;;;16.94;90.22;99235.63;5031999;28;835;-60
2021/08/18 02:07:30;;;;;;;;;;;;;;;16.87;90.24;99231.13;5032048;28;866;-60
2021/08/18 02:09:57;;;;;;;;;;;;;;;16.89;90.40;99225.09;5031892;28;818;-59
2021/08/18 02:12:23;;;;;;;;;;;;;;;17.16;91.97;99226.41;5031896;28;913;-59
2021/08/18 02:14:49;;;;;;;;;;;;;;;17.49;92.04;99221.03;5031959;28;885;-60
2021/08/18 02:17:15;;;;;;;;;;;;;;;17.69;92.23;99224.16;5031681;28;1436;-60
2021/08/18 02:19:42;;;;;;;;;;;;;;;17.83;91.67;99224.81;5031772;28;842;-60
2021/08/18 02:22:08;;;;;;;;;;;;;;;17.68;90.98;99213.44;5013982;28;1372;-60
2021/08/18 02:24:35;;;;;;;;;;;;;;;17.52;90.66;99208.94;5031814;28;1915;-60
2021/08/18 02:27:02;;;;;;;;;;;;;;;17.55;91.61;99202.41;5031651;28;815;-60
2021/08/18 02:29:29;;;;;;;;;;;;;;;17.76;92.11;99209.88;5031572;28;814;-59
2021/08/18 02:31:56;;;;;;;;;;;;;;;17.93;92.04;99204.75;5031614;28;870;-60
2021/08/18 02:34:22;;;;;;;;;;;;;;;17.98;91.45;99192.16;5031759;28;894;-60
2021/08/18 02:36:49;;;;;;;;;;;;;;;17.93;91.12;99201.97;5031533;28;902;-59
2021/08/18 02:39:15;;;;;;;;;;;;;;;17.81;90.88;99211.25;5031552;28;846;-60
2021/08/18 02:41:41;;;;;;;;;;;;;;;17.66;90.86;99205.50;5031384;28;836;-60
2021/08/18 02:44:08;;;;;;;;;;;;;;;17.59;91.13;99211.41;5031508;28;1951;-60
2021/08/18 02:46:35;;;;;;;;;;;;;;;17.55;91.14;99208.78;5031425;28;869;-60
2021/08/18 02:49:02;;;;;;;;;;;;;;;17.50;91.06;99214.22;5031459;28;865;-60
2021/08/18 02:51:28;;;;;;;;;;;;;;;17.41;91.10;99212.19;5031452;28;873;-60
2021/08/18 02:53:55;;;;;;;;;;;;;;;17.53;91.95;99211.25;5031277;28;914;-60
2021/08/18 02:56:22;;;;;;;;;;;;;;;17.54;91.61;99215.63;5031423;28;827;-60
2021/08/18 02:58:48;;;;;;;;;;;;;;;17.42;91.10;99224.91;5035007;28;843;-60
2021/08/18 03:01:14;;;;;;;;;;;;;;;17.29;90.80;99230.63;5035592;28;799;-60
2021/08/18 03:03:41;;;;;;;;;;;;;;;17.22;91.20;99222.56;5035268;28;2244;-60
2021/08/18 03:06:07;;;;;;;;;;;;;;;17.33;91.79;99214.50;5035310;28;854;-59
2021/08/18 03:08:34;;;;;;;;;;;;;;;17.34;91.38;99207.66;5035333;28;839;-60
2021/08/18 03:11:01;;;;;;;;;;;;;;;17.29;91.47;99215.91;5035222;28;881;-60
2021/08/18 03:13:29;;;;;;;;;;;;;;;17.29;91.42;99213.09;5035108;28;830;-60
2021/08/18 03:15:56;;;;;;;;;;;;;;;17.31;91.74;99208.59;5035064;28;1191;-60
2021/08/18 03:18:22;;;;;;;;;;;;;;;17.30;91.63;99215.44;5035170;28;791;-60
2021/08/18 03:20:49;;;;;;;;;;;;;;;17.23;91.45;99229.69;5035113;28;846;-60
2021/08/18 03:23:16;;;;;;;;;;;;;;;17.13;91.18;99228.09;5034801;28;1914;-59
2021/08/18 03:25:42;;;;;;;;;;;;;;;17.02;90.96;99228.53;5034932;28;803;-60
2021/08/18 03:28:09;;;;;;;;;;;;;;;16.93;91.10;99226.50;5034953;28;874;-60
2021/08/18 03:30:36;;;;;;;;;;;;;;;16.87;91.07;99233.91;5034766;28;807;-60
2021/08/18 03:33:02;;;;;;;;;;;;;;;17.03;92.11;99237.72;5034885;28;863;-60
2021/08/18 03:35:29;;;;;;;;;;;;;;;17.13;91.80;99244.84;5034797;28;806;-60
2021/08/18 03:37:56;;;;;;;;;;;;;;;17.09;91.60;99238.63;5034890;28;866;-60
2021/08/18 03:40:21;;;;;;;;;;;;;;;17.19;91.98;99253.41;5034760;28;857;-60
2021/08/18 03:42:48;;;;;;;;;;;;;;;17.25;91.78;99245.97;5035038;28;1889;-60
2021/08/18 03:45:15;;;;;;;;;;;;;;;17.27;91.76;99263.81;5034893;28;858;-60
2021/08/18 03:47:41;;;;;;;;;;;;;;;17.28;91.39;99264.59;5035059;28;759;-60
2021/08/18 03:50:09;;;;;;;;;;;;;;;17.25;91.28;99265.53;5034503;28;842;-60
2021/08/18 03:52:40;;;;;;;;;;;;;;;17.22;91.37;99266.44;5034405;28;834;-60
2021/08/18 03:55:07;;;;;;;;;;;;;;;17.24;91.90;99272.34;5034453;28;807;-60
2021/08/18 03:57:34;;;;;;;;;;;;;;;17.33;92.22;99277.97;5034543;28;898;-60
2021/08/18 04:00:01;;;;;;;;;;;;;;;17.55;92.45;99275.81;5016688;28;929;-60
2021/08/18 04:02:27;;;;;;;;;;;;;;;17.69;92.12;99274.47;5034153;28;1894;-60
2021/08/18 04:04:54;;;;;;;;;;;;;;;17.88;92.33;99272.50;5034270;28;980;-60
2021/08/18 04:07:21;;;;;;;;;;;;;;;18.07;92.20;99270.47;5034083;28;803;-60
2021/08/18 04:09:47;;;;;;;;;;;;;;;18.22;91.95;99279.00;5033069;28;803;-60
2021/08/18 04:12:14;;;;;;;;;;;;;;;18.31;91.71;99273.38;5034200;28;804;-60
2021/08/18 04:14:40;;;;;;;;;;;;;;;18.41;91.44;99276.94;5034286;28;1017;-60
2021/08/18 04:17:07;;;;;;;;;;;;;;;18.50;91.53;99274.13;5033927;28;1224;-60
2021/08/18 04:19:36;;;;;;;;;;;;;;;18.61;91.39;99278.47;5034567;28;760;-60
2021/08/18 04:22:01;;;;;;;;;;;;;;;18.69;91.42;99276.88;5033811;28;1008;-60
2021/08/18 04:24:28;;;;;;;;;;;;;;;18.73;91.25;99264.28;5034045;28;1976;-60
2021/08/18 04:26:54;;;;;;;;;;;;;;;18.82;91.36;99271.91;5034015;28;850;-60
2021/08/18 04:29:22;;;;;;;;;;;;;;;18.97;91.67;99274.81;5033884;28;851;-60
2021/08/18 04:31:49;;;;;;;;;;;;;;;19.24;91.76;99273.09;5033925;28;870;-60
2021/08/18 04:34:16;;;;;;;;;;;;;;;19.48;91.44;99278.72;5034124;28;814;-60
2021/08/18 04:36:43;;;;;;;;;;;;;;;19.83;91.47;99281.03;5033837;28;823;-60
2021/08/18 04:39:10;;;;;;;;;;;;;;;20.17;91.36;99279.66;5033812;28;838;-60
2021/08/18 04:41:36;;;;;;;;;;;;;;;20.48;90.69;99278.41;5033995;28;826;-60
2021/08/18 04:44:03;;;;;;;;;;;;;;;20.76;89.85;99279.69;5033741;28;1903;-60
2021/08/18 04:46:30;;;;;;;;;;;;;;;21.09;88.58;99275.88;5033794;28;759;-60
2021/08/18 04:48:56;;;;;;;;;;;;;;;21.36;88.12;99280.34;5033671;28;823;-60
2021/08/18 04:51:22;;;;;;;;;;;;;;;21.55;87.55;99280.91;5033156;28;847;-60
2021/08/18 04:53:49;;;;;;;;;;;;;;;21.72;86.59;99275.50;5033252;28;1047;-60
2021/08/18 04:56:16;;;;;;;;;;;;;;;21.89;86.65;99280.53;5015648;28;1112;-60
2021/08/18 04:58:43;;;;;;;;;;;;;;;22.01;83.53;99282.97;5033158;28;808;-60
2021/08/18 05:01:09;;;;;;;;;;;;;;;22.15;83.18;99286.22;5033343;28;878;-60
2021/08/18 05:03:35;;;;;;;;;;;;;;;22.38;83.56;99292.84;5032962;28;1953;-60
2021/08/18 05:06:02;;;;;;;;;;;;;;;22.60;83.23;99278.25;5032981;28;866;-60
2021/08/18 05:08:28;;;;;;;;;;;;;;;22.83;82.28;99274.34;5033098;28;862;-60
2021/08/18 05:16:05;;;;;;;;;;;;;;;23.26;72.82;99284.91;5407028;22;1597;-61
2021/08/18 05:18:32;;;;;;;;;;;;;;;23.33;74.14;99284.44;5052966;28;897;-60
2021/08/18 05:20:59;;;;;;;;;;;;;;;23.48;73.94;99289.13;5052944;28;807;-61
2021/08/18 05:23:26;;;;;;;;;;;;;;;23.63;70.87;99289.72;5052561;28;1910;-61
2021/08/18 05:25:52;;;;;;;;;;;;;;;23.82;70.29;99292.91;5052789;28;877;-60
2021/08/18 05:28:20;;;;;;;;;;;;;;;24.01;68.55;99299.66;5052389;28;1112;-61
2021/08/18 05:30:47;;;;;;;;;;;;;;;24.35;66.97;99302.59;5052740;28;917;-61
2021/08/18 05:33:13;;;;;;;;;;;;;;;24.77;64.57;99298.03;5052713;28;865;-60
2021/08/18 05:35:40;;;;;;;;;;;;;;;25.22;62.44;99306.53;5052670;28;885;-61
2021/08/18 05:38:06;;;;;;;;;;;;;;;25.92;60.37;99300.16;5052804;28;1064;-60
2021/08/18 05:40:33;;;;;;;;;;;;;;;26.69;55.83;99308.75;5052475;28;853;-61
2021/08/18 05:43:00;;;;;;;;;;;;;;;27.43;54.04;99295.47;5052853;28;1914;-61
2021/08/18 05:45:26;;;;;;;;;;;;;;;27.76;49.72;99289.94;5052228;28;873;-61
2021/08/18 05:47:53;;;;;;;;;;;;;;;27.78;49.00;99296.66;5052173;28;870;-61
2021/08/18 05:50:20;;;;;;;;;;;;;;;27.66;48.23;99290.31;5034360;28;929;-61
2021/08/18 05:52:47;;;;;;;;;;;;;;;27.88;47.07;99292.16;5052049;28;874;-61
2021/08/18 05:55:14;;;;;;;;;;;;;;;28.33;46.58;99290.00;5052058;28;846;-61
2021/08/18 05:57:40;;;;;;;;;;;;;;;28.71;44.74;99288.66;5052061;28;850;-61
2021/08/18 06:00:07;;;;;;;;;;;;;;;29.32;43.15;99288.19;5051878;28;850;-61
2021/08/18 06:02:34;;;;;;;;;;;;;;;29.76;41.61;99291.47;5051875;28;1958;-62
2021/08/18 06:05:00;;;;;;;;;;;;;;;29.74;40.67;99294.09;5034023;28;1378;-61
2021/08/18 06:07:27;;;;;;;;;;;;;;;29.61;39.95;99282.69;5051797;28;814;-61
2021/08/18 06:09:54;;;;;;;;;;;;;;;29.49;40.66;99285.00;5051821;28;811;-61
2021/08/18 06:12:19;;;;;;;;;;;;;;;29.44;40.06;99278.09;5051762;28;830;-62
2021/08/18 06:14:46;;;;;;;;;;;;;;;29.49;40.12;99279.31;5051736;28;937;-62
2021/08/18 06:17:13;;;;;;;;;;;;;;;29.60;39.66;99276.25;5051594;28;1585;-62
2021/08/18 06:19:39;;;;;;;;;;;;;;;29.55;39.96;99273.50;5051608;28;917;-62
2021/08/18 06:22:06;;;;;;;;;;;;;;;29.67;39.66;99272.72;5051618;28;845;-62
2021/08/18 06:27:06;;;;;;;;;;;;;;;29.99;39.64;99280.38;5051672;28;743;-61
2021/08/18 06:29:34;;;;;;;;;;;;;;;29.99;38.83;99268.97;5052128;28;794;-62
2021/08/18 06:32:02;;;;;;;;;;;;;;;30.04;39.44;99282.34;5051260;28;846;-63
2021/08/18 06:34:29;;;;;;;;;;;;;;;30.10;39.22;99282.22;5033624;28;1513;-62
2021/08/18 06:36:55;;;;;;;;;;;;;;;30.50;38.33;99287.81;5051683;28;834;-61
2021/08/18 06:39:22;;;;;;;;;;;;;;;30.83;38.77;99280.53;5051634;28;818;-61
2021/08/18 06:41:49;;;;;;;;;;;;;;;31.29;37.24;99297.28;5051962;28;803;-62
2021/08/18 06:44:17;;;;;;;;;;;;;;;31.30;37.08;99285.31;5051366;28;1959;-63
2021/08/18 06:46:44;;;;;;;;;;;;;;;31.21;37.41;99291.50;5051632;28;873;-63
2021/08/18 06:49:10;;;;;;;;;;;;;;;31.31;36.60;99294.63;5051626;28;854;-61
2021/08/18 06:51:36;;;;;;;;;;;;;;;31.44;36.27;99288.09;5051503;28;881;-63
2021/08/18 06:54:03;;;;;;;;;;;;;;;31.59;36.33;99296.75;5051765;28;853;-61
2021/08/18 06:56:29;;;;;;;;;;;;;;;31.86;35.09;99299.38;5051296;28;964;-62
2021/08/18 06:58:56;;;;;;;;;;;;;;;32.18;35.38;99298.16;5051246;28;862;-62
2021/08/18 07:01:23;;;;;;;;;;;;;;;32.63;34.48;99283.28;5051311;28;806;-62
2021/08/18 07:03:49;;;;;;;;;;;;;;;32.73;33.51;99294.91;5051178;28;1890;-61
2021/08/18 07:06:16;;;;;;;;;;;;;;;32.57;33.87;99301.94;5051345;28;846;-61
2021/08/18 07:08:42;;;;;;;;;;;;;;;32.73;33.85;99301.41;5051226;28;959;-62
2021/08/18 07:11:09;;;;;;;;;;;;;;;32.92;33.98;99306.78;5051196;28;806;-61
2021/08/18 07:13:36;;;;;;;;;;;;;;;33.51;33.37;99299.28;5033330;28;869;-61
2021/08/18 07:16:03;;;;;;;;;;;;;;;34.24;32.04;99302.34;5051113;28;1201;-61
2021/08/18 07:18:29;;;;;;;;;;;;;;;34.39;31.37;99306.47;5051112;28;826;-61
2021/08/18 07:20:56;;;;;;;;;;;;;;;34.08;31.47;99304.50;5051039;28;877;-61
2021/08/18 07:23:23;;;;;;;;;;;;;;;34.55;31.13;99310.78;5050994;28;1996;-61
2021/08/18 07:25:49;;;;;;;;;;;;;;;34.39;30.94;99315.06;5033192;28;1211;-61
2021/08/18 07:28:16;;;;;;;;;;;;;;;34.26;31.21;99316.84;5050997;28;1170;-61
2021/08/18 07:30:42;;;;;;;;;;;;;;;34.94;30.46;99308.44;5050932;28;861;-61
2021/08/18 07:33:09;;;;;;;;;;;;;;;35.12;29.23;99301.41;5050996;28;866;-62
2021/08/18 07:35:36;;;;;;;;;;;;;;;35.08;29.41;99309.66;5050931;28;818;-61
2021/08/18 07:38:03;;;;;;;;;;;;;;;35.49;29.78;99309.50;5050900;28;830;-61
2021/08/18 07:40:29;;;;;;;;;;;;;;;35.86;28.70;99316.19;5050879;28;831;-61
2021/08/18 07:42:58;;;;;;;;;;;;;;;35.97;28.98;99312.81;5051045;28;1886;-61
2021/08/18 07:45:27;;;;;;;;;;;;;;;35.82;28.21;99306.47;5054528;28;811;-62
2021/08/18 07:47:53;;;;;;;;;;;;;;;35.91;28.54;99305.78;5054448;28;802;-62
2021/08/18 07:50:20;;;;;;;;;;;;;;;36.36;27.77;99304.47;5054445;28;823;-62
2021/08/18 07:52:49;;;;;;;;;;;;;;;36.08;28.05;99305.78;5054270;28;846;-61
2021/08/18 07:55:16;;;;;;;;;;;;;;;36.08;28.34;99305.00;5054375;28;861;-62
2021/08/18 07:57:41;;;;;;;;;;;;;;;36.42;28.14;99309.94;5054324;28;893;-62
2021/08/18 08:00:08;;;;;;;;;;;;;;;36.65;27.83;99306.78;5054269;28;818;-62
2021/08/18 08:02:34;;;;;;;;;;;;;;;36.65;27.82;99300.25;5054383;28;1909;-61
2021/08/18 08:05:04;;;;;;;;;;;;;;;36.68;27.80;99299.81;5054100;28;886;-61
2021/08/18 08:07:30;;;;;;;;;;;;;;;36.70;27.64;99302.88;5054021;28;842;-61
2021/08/18 08:09:57;;;;;;;;;;;;;;;36.49;27.73;99293.94;5054109;28;873;-62
2021/08/18 08:12:24;;;;;;;;;;;;;;;36.33;27.78;99296.28;5053930;28;842;-62
2021/08/18 08:14:51;;;;;;;;;;;;;;;36.13;27.81;99296.16;5054284;28;943;-62
2021/08/18 08:17:17;;;;;;;;;;;;;;;35.98;28.48;99297.09;5053791;28;1167;-61
2021/08/18 08:19:43;;;;;;;;;;;;;;;36.25;27.65;99299.25;5053901;28;798;-62
2021/08/18 08:22:10;;;;;;;;;;;;;;;36.12;27.72;99291.72;5053825;28;869;-62
2021/08/18 08:24:37;;;;;;;;;;;;;;;35.91;28.45;99292.19;5053691;28;1985;-62
2021/08/18 08:27:03;;;;;;;;;;;;;;;35.75;28.17;99290.84;5053727;28;839;-62
2021/08/18 08:29:30;;;;;;;;;;;;;;;35.73;28.65;99279.94;5054018;28;799;-61
2021/08/18 08:31:56;;;;;;;;;;;;;;;35.96;27.86;99282.53;5053577;28;902;-62
2021/08/18 08:34:24;;;;;;;;;;;;;;;36.17;27.79;99276.34;5053621;28;826;-61
2021/08/18 08:36:50;;;;;;;;;;;;;;;36.41;27.55;99276.78;5053487;28;586;-62
2021/08/18 08:39:16;;;;;;;;;;;;;;;36.24;27.88;99273.97;5053451;28;1062;-61
2021/08/18 08:41:43;;;;;;;;;;;;;;;35.87;27.77;99279.56;5053397;28;905;-62
2021/08/18 08:44:17;;;;;;;;;;;;;;;35.50;28.70;99273.66;5053377;28;1951;-61
2021/08/18 08:46:46;;;;;;;;;;;;;;;35.21;28.88;99273.38;5053248;28;924;-62
2021/08/18 08:49:13;;;;;;;;;;;;;;;35.35;28.99;99268.84;5053480;28;1284;-61
2021/08/18 08:51:39;;;;;;;;;;;;;;;35.57;28.42;99270.72;5053499;28;795;-62
2021/08/18 08:54:06;;;;;;;;;;;;;;;35.79;28.20;99259.56;5053344;28;1232;-62
2021/08/18 08:56:33;;;;;;;;;;;;;;;35.92;28.64;99255.56;5052882;28;850;-62
2021/08/18 08:59:00;;;;;;;;;;;;;;;36.11;27.44;99263.56;5053296;28;878;-63
2021/08/18 09:01:26;;;;;;;;;;;;;;;35.82;28.31;99254.75;5053838;28;778;-61
2021/08/18 09:03:53;;;;;;;;;;;;;;;35.68;28.16;99257.22;5053153;28;1947;-62
2021/08/18 09:06:21;;;;;;;;;;;;;;;35.25;28.80;99242.13;5053247;28;889;-63
2021/08/18 09:08:49;;;;;;;;;;;;;;;35.07;29.40;99242.06;5053055;28;841;-62
2021/08/18 09:11:16;;;;;;;;;;;;;;;34.85;29.62;99237.31;5053264;28;767;-62
2021/08/18 09:13:50;;;;;;;;;;;;;;;35.08;29.79;99226.38;5053102;28;865;-61
2021/08/18 09:16:18;;;;;;;;;;;;;;;35.48;28.75;99234.03;5052817;28;1261;-61
2021/08/18 09:18:51;;;;;;;;;;;;;;;35.36;29.24;99233.03;5053008;28;862;-62
2021/08/18 09:21:37;;;;;;;;;;;;;;;35.20;29.44;99226.66;5052688;28;934;-61
2021/08/18 09:24:13;;;;;;;;;;;;;;;35.28;28.87;99227.34;5052559;28;1964;-62
2021/08/18 09:26:41;;;;;;;;;;;;;;;35.04;29.77;99225.28;5052796;28;982;-62
2021/08/18 09:29:08;;;;;;;;;;;;;;;34.95;29.95;99232.44;5052817;28;799;-62
2021/08/18 09:31:35;;;;;;;;;;;;;;;34.85;30.21;99229.47;5052643;28;893;-62
2021/08/18 09:34:02;;;;;;;;;;;;;;;34.88;29.93;99225.41;5052606;28;877;-63
2021/08/18 09:36:33;;;;;;;;;;;;;;;34.89;29.88;99223.31;5052629;28;846;-62
2021/08/18 09:39:38;;;;;;;;;;;;;;;34.55;30.81;99227.59;5052334;28;901;-62
2021/08/18 09:42:11;;;;;;;;;;;;;;;34.43;30.68;99220.78;4971727;28;1423;-62
2021/08/18 09:44:37;;;;;;;;;;;;;;;34.54;30.74;99221.06;4971409;28;1887;-62
2021/08/18 09:47:05;;;;;;;;;;;;;;;34.45;30.91;99218.84;4971570;28;894;-62
2021/08/18 09:49:33;;;;;;;;;;;;;;;34.27;30.48;99220.88;4971412;28;859;-63
2021/08/18 09:51:59;;;;;;;;;;;;;;;34.06;30.54;99226.16;4971453;28;815;-62
2021/08/18 09:54:35;;;;;;;;;;;;;;;34.19;30.50;99214.44;4971247;28;1016;-62
2021/08/18 09:57:06;;;;;;;;;;;;;;;34.61;30.54;99219.50;4955185;28;1162;-63
2021/08/18 09:59:33;;;;;;;;;;;;;;;34.89;30.16;99226.94;4971443;28;925;-63
2021/08/18 10:02:00;;;;;;;;;;;;;;;35.15;30.03;99224.81;4971265;28;807;-62
2021/08/18 10:04:26;;;;;;;;;;;;;;;35.52;29.05;99225.75;4971151;28;1878;-62
2021/08/18 10:06:53;;;;;;;;;;;;;;;34.88;29.78;99218.91;4970288;28;1039;-63
2021/08/18 10:09:20;;;;;;;;;;;;;;;34.74;30.22;99210.63;4971099;28;926;-63
2021/08/18 10:11:46;;;;;;;;;;;;;;;34.72;30.52;99215.44;4978281;28;1018;-62
2021/08/18 10:14:12;;;;;;;;;;;;;;;34.88;30.11;99216.78;5051856;28;955;-62
2021/08/18 10:16:39;;;;;;;;;;;;;;;35.10;29.68;99212.19;5051537;28;1437;-61
2021/08/18 10:19:06;;;;;;;;;;;;;;;35.39;29.28;99211.72;5051688;28;803;-62
2021/08/18 10:21:33;;;;;;;;;;;;;;;35.37;28.99;99209.44;5051676;28;529;-62
2021/08/18 10:24:07;;;;;;;;;;;;;;;35.33;29.66;99199.72;5051545;28;1902;-62
2021/08/18 10:26:36;;;;;;;;;;;;;;;35.47;29.83;99197.28;5051483;28;839;-61
2021/08/18 10:29:09;;;;;;;;;;;;;;;35.70;28.72;99203.53;5051598;28;853;-62
2021/08/18 10:31:48;;;;;;;;;;;;;;;35.80;29.51;99202.84;5051540;28;881;-62
2021/08/18 10:34:23;;;;;;;;;;;;;;;35.82;28.53;99200.13;5051732;28;838;-62
2021/08/18 10:36:56;;;;;;;;;;;;;;;35.60;28.90;99205.53;5051585;28;920;-62
2021/08/18 10:39:26;;;;;;;;;;;;;;;35.78;29.08;99194.78;5051386;28;905;-62
2021/08/18 10:42:00;;;;;;;;;;;;;;;35.90;28.75;99195.03;5051499;28;857;-62
2021/08/18 10:44:39;;;;;;;;;;;;;;;35.81;29.18;99190.75;5033394;28;1947;-62
2021/08/18 10:47:18;;;;;;;;;;;;;;;35.64;29.22;99182.16;5051434;28;814;-62
2021/08/18 10:49:48;;;;;;;;;;;;;;;35.87;28.51;99182.63;5033451;28;1572;-62
2021/08/18 10:52:38;;;;;;;;;;;;;;;36.05;28.66;99185.44;5051621;28;854;-62
2021/08/18 10:55:12;;;;;;;;;;;;;;;36.07;28.62;99186.34;5040916;28;1456;-63
2021/08/18 10:57:44;;;;;;;;;;;;;;;36.16;28.50;99188.53;5051283;28;858;-62
2021/08/18 11:00:22;;;;;;;;;;;;;;;36.59;26.91;99185.38;5051389;28;857;-62
2021/08/18 11:02:56;;;;;;;;;;;;;;;36.73;28.32;99183.63;5033250;28;1890;-62
2021/08/18 11:05:24;;;;;;;;;;;;;;;37.13;27.01;99170.09;5051398;28;865;-63
2021/08/18 11:08:00;;;;;;;;;;;;;;;37.26;27.72;99181.16;5033434;28;1761;-63
2021/08/18 11:10:27;;;;;;;;;;;;;;;37.35;26.75;99179.66;5051051;28;783;-63
2021/08/18 11:12:57;;;;;;;;;;;;;;;37.40;27.14;99178.56;5051183;28;814;-62
2021/08/18 11:15:26;;;;;;;;;;;;;;;37.24;27.26;99174.50;5051212;28;1372;-62
2021/08/18 11:17:54;;;;;;;;;;;;;;;37.30;27.41;99169.94;5051399;28;798;-62
2021/08/18 11:20:22;;;;;;;;;;;;;;;37.49;27.41;99172.06;5055047;28;834;-64
2021/08/18 11:22:55;;;;;;;;;;;;;;;37.13;27.55;99165.09;5055046;28;1922;-63
2021/08/18 11:25:22;;;;;;;;;;;;;;;37.10;28.16;99160.53;5055061;28;898;-63
2021/08/18 11:27:52;;;;;;;;;;;;;;;37.39;27.90;99166.28;5055172;28;810;-63
2021/08/18 11:30:27;;;;;;;;;;;;;;;37.98;27.12;99154.66;5054729;28;921;-64
2021/08/18 11:32:55;;;;;;;;;;;;;;;37.72;27.66;99159.28;5054746;28;970;-62
2021/08/18 11:35:35;;;;;;;;;;;;;;;37.16;28.18;99160.97;5054720;28;830;-63
2021/08/18 11:38:10;;;;;;;;;;;;;;;36.01;29.88;99162.09;5054647;28;837;-62
2021/08/18 11:40:38;;;;;;;;;;;;;;;36.09;30.07;99152.00;5054620;28;862;-63
2021/08/18 11:43:06;;;;;;;;;;;;;;;36.41;29.72;99144.44;5054454;28;1953;-62
2021/08/18 11:45:35;;;;;;;;;;;;;;;36.57;29.44;99142.06;5054588;28;807;-62
2021/08/18 11:48:09;;;;;;;;;;;;;;;36.82;28.91;99143.97;5054428;28;893;-62
2021/08/18 11:50:50;;;;;;;;;;;;;;;36.97;28.54;99135.03;5054495;28;845;-63
2021/08/18 11:53:17;;;;;;;;;;;;;;;37.44;28.25;99132.00;5054412;28;810;-62
2021/08/18 11:55:43;;;;;;;;;;;;;;;37.71;27.74;99126.09;5054260;28;938;-62
2021/08/18 11:58:10;;;;;;;;;;;;;;;37.85;28.18;99124.19;5054508;28;846;-63
2021/08/18 12:00:38;;;;;;;;;;;;;;;38.09;27.07;99125.22;5054241;28;822;-61
2021/08/18 12:03:05;;;;;;;;;;;;;;;37.70;27.27;99118.78;5054139;28;1899;-63
2021/08/18 12:05:33;;;;;;;;;;;;;;;37.15;27.95;99119.16;5054096;28;1038;-62
2021/08/18 12:08:09;;;;;;;;;;;;;;;36.82;29.14;99115.91;5054744;28;779;-63
2021/08/18 12:10:40;;;;;;;;;;;;;;;36.86;28.42;99115.47;5053941;28;953;-63
2021/08/18 12:13:08;;;;;;;;;;;;;;;36.86;27.76;99098.22;5054255;28;815;-62
2021/08/18 12:15:41;;;;;;;;;;;;;;;37.32;27.49;99100.16;5053872;28;1197;-63
2021/08/18 12:18:28;;;;;;;;;;;;;;;37.13;27.28;99095.97;5054166;28;915;-62
2021/08/18 12:20:54;;;;;;;;;;;;;;;36.45;28.22;99097.97;5053718;28;1266;-63
2021/08/18 12:23:25;;;;;;;;;;;;;;;36.18;29.37;99102.41;5053765;28;1922;-63
2021/08/18 12:25:52;;;;;;;;;;;;;;;36.21;28.79;99093.94;5053891;28;938;-62
2021/08/18 12:28:20;;;;;;;;;;;;;;;35.39;30.30;99099.69;5054609;28;736;-63
2021/08/18 12:30:59;;;;;;;;;;;;;;;34.68;31.14;99103.91;5052969;28;830;-62
2021/08/18 12:33:25;;;;;;;;;;;;;;;34.32;32.17;99087.97;5053624;28;831;-62
2021/08/18 12:36:05;;;;;;;;;;;;;;;33.99;32.43;99092.97;5053653;28;807;-63
2021/08/18 12:38:33;;;;;;;;;;;;;;;34.21;32.68;99090.56;5053367;28;798;-62
2021/08/18 12:41:08;;;;;;;;;;;;;;;34.65;31.31;99089.97;5053570;28;839;-62
2021/08/18 12:43:35;;;;;;;;;;;;;;;34.88;30.85;99086.88;5053429;28;1955;-62
2021/08/18 12:46:02;;;;;;;;;;;;;;;35.55;29.41;99083.78;5053702;28;826;-63
2021/08/18 12:48:31;;;;;;;;;;;;;;;35.66;29.48;99079.63;5053693;28;850;-63
2021/08/18 12:51:03;;;;;;;;;;;;;;;35.92;29.92;99077.31;5053365;28;838;-62
2021/08/18 12:53:30;;;;;;;;;;;;;;;36.31;28.43;99075.34;5053871;28;796;-62
2021/08/18 12:55:56;;;;;;;;;;;;;;;36.79;28.24;99071.84;5053505;28;791;-62
2021/08/18 12:58:23;;;;;;;;;;;;;;;37.09;28.28;99069.75;5053198;28;903;-63
2021/08/18 13:00:50;;;;;;;;;;;;;;;37.04;28.36;99067.88;5053058;28;794;-62
2021/08/18 13:03:17;;;;;;;;;;;;;;;36.79;27.78;99076.84;5053337;28;1890;-63
2021/08/18 13:05:44;;;;;;;;;;;;;;;36.73;28.44;99077.13;5053062;28;868;-62
2021/08/18 13:08:11;;;;;;;;;;;;;;;36.82;27.38;99072.75;5052881;28;799;-63
2021/08/18 13:10:39;;;;;;;;;;;;;;;37.02;27.67;99070.59;5052900;28;806;-63
2021/08/18 13:13:04;;;;;;;;;;;;;;;36.86;27.18;99073.03;5053254;28;760;-64
2021/08/18 13:15:31;;;;;;;;;;;;;;;37.01;27.15;99071.22;5052912;28;1229;-62
2021/08/18 13:17:57;;;;;;;;;;;;;;;36.73;27.21;99068.50;5052804;28;853;-62